Time;durP1;ratioP1;P1;durP2;ratioP2;P2;SDS_P1;SDS_P2;PMS_P1;PMS_P2;Temp;Humidity;BMP_temperature;BMP_pressure;BME280_temperature;BME280_humidity;BME280_pressure;Samples;Min_cycle;Max_cycle;Signal;HPM_P1;HPM_P2
2022/09/01 05:36:12;;;;;;;18.65;14.05;;;17.90;92.50;;;;;;6171731;22;2291795;-85
2022/09/01 05:38:43;;;;;;;19.65;13.90;;;17.90;92.30;;;;;;6230931;23;20446;-86
2022/09/01 05:41:16;;;;;;;28.63;12.68;;;17.90;92.40;;;;;;6234369;23;20007;-86
2022/09/01 05:43:47;;;;;;;22.33;13.80;;;17.90;92.40;;;;;;6234941;23;20000;-86
2022/09/01 05:46:17;;;;;;;16.25;10.43;;;17.90;92.50;;;;;;6234353;23;20008;-86
2022/09/01 05:48:50;;;;;;;18.30;11.13;;;17.80;92.70;;;;;;6234939;23;20026;-86
2022/09/01 05:51:19;;;;;;;26.30;10.80;;;17.90;92.70;;;;;;6234863;23;20031;-86
2022/09/01 05:53:46;;;;;;;17.70;10.30;;;17.90;95.60;;;;;;6234604;23;20007;-86
2022/09/01 05:56:13;;;;;;;16.83;11.55;;;17.90;92.80;;;;;;6209699;23;20015;-85
2022/09/01 05:58:43;;;;;;;18.92;9.85;;;17.90;92.80;;;;;;6259933;23;20034;-86
2022/09/01 06:01:10;;;;;;;15.40;8.30;;;17.90;92.80;;;;;;6235029;23;19996;-86
2022/09/01 06:03:36;;;;;;;10.85;8.10;;;17.90;92.90;;;;;;6234716;23;20008;-86
2022/09/01 06:06:07;;;;;;;15.05;7.93;;;17.90;92.90;;;;;;6234999;23;20005;-85
2022/09/01 06:08:35;;;;;;;14.70;7.30;;;17.90;93.00;;;;;;6234738;23;20023;-86
2022/09/01 06:11:02;;;;;;;10.55;6.43;;;18.00;93.10;;;;;;6259859;23;20000;-86
2022/09/01 06:13:29;;;;;;;7.80;4.90;;;18.00;93.30;;;;;;6234055;23;20008;-85
2022/09/01 06:15:57;;;;;;;6.43;5.20;;;18.00;93.40;;;;;;6245105;23;20038;-85
2022/09/01 06:18:23;;;;;;;4.82;4.43;;;18.00;93.60;;;;;;6235266;23;20257;-84
2022/09/01 06:20:55;;;;;;;8.32;4.95;;;18.00;93.60;;;;;;6236232;23;20435;-85
2022/09/01 06:23:22;;;;;;;8.23;4.88;;;18.00;93.60;;;;;;6210142;23;20010;-85
2022/09/01 06:25:48;;;;;;;7.70;4.63;;;18.00;93.70;;;;;;6264820;23;20004;-84
2022/09/01 06:28:20;;;;;;;9.52;3.60;;;18.10;93.80;;;;;;6239358;23;20034;-88
2022/09/01 06:30:47;;;;;;;2.80;2.35;;;18.10;93.90;;;;;;6260789;23;20035;-86
2022/09/01 06:33:14;;;;;;;6.55;3.58;;;18.10;93.90;;;;;;6235943;23;20007;-87
2022/09/01 06:35:46;;;;;;;2.72;2.50;;;18.10;93.90;;;;;;6261741;23;20031;-86
2022/09/01 06:38:14;;;;;;;9.27;3.42;;;18.10;94.10;;;;;;6260754;23;20008;-87
2022/09/01 06:40:45;;;;;;;3.92;2.20;;;18.10;94.10;;;;;;6262055;23;20022;-86
2022/09/01 06:43:16;;;;;;;3.60;2.92;;;18.10;94.20;;;;;;6260500;23;20366;-88
2022/09/01 06:45:53;;;;;;;6.15;2.92;;;18.10;94.30;;;;;;6260097;23;20007;-88
2022/09/01 06:48:22;;;;;;;5.32;2.10;;;18.10;94.30;;;;;;6260079;23;20004;-89
2022/09/01 06:50:50;;;;;;;3.08;2.22;;;18.20;94.30;;;;;;6259944;23;20031;-88
2022/09/01 06:53:17;;;;;;;4.90;2.33;;;18.20;94.40;;;;;;6233964;23;20019;-89
2022/09/01 06:55:48;;;;;;;3.22;2.92;;;18.20;94.30;;;;;;6259684;23;20334;-89
2022/09/01 06:58:14;;;;;;;6.85;2.50;;;18.20;94.30;;;;;;6259911;23;20022;-89
2022/09/01 07:00:47;;;;;;;9.88;4.53;;;18.20;94.30;;;;;;6235863;23;20000;-89
2022/09/01 07:03:14;;;;;;;2.38;2.08;;;18.20;94.30;;;;;;6260665;23;20046;-89
2022/09/01 07:05:51;;;;;;;2.40;2.00;;;18.20;94.40;;;;;;6259931;23;20154;-89
2022/09/01 07:08:20;;;;;;;3.03;2.47;;;18.20;94.60;;;;;;6260512;23;20027;-89
2022/09/01 07:11:22;;;;;;;2.60;1.98;;;18.30;94.80;;;;;;6249683;23;20035;-89
2022/09/01 07:13:52;;;;;;;3.50;3.13;;;18.30;94.80;;;;;;6234731;23;20004;-90
2022/09/01 07:16:22;;;;;;;11.65;2.63;;;18.30;94.80;;;;;;6259714;23;20004;-88
2022/09/01 07:18:59;;;;;;;11.00;2.80;;;18.30;94.80;;;;;;6259594;23;20027;-90
2022/09/01 07:21:27;;;;;;;3.90;2.42;;;18.40;94.80;;;;;;6260093;23;20056;-89
2022/09/01 07:23:56;;;;;;;3.08;2.47;;;18.40;94.80;;;;;;6259774;23;20434;-89
2022/09/01 07:26:24;;;;;;;2.95;2.60;;;18.40;95.00;;;;;;6234979;23;20431;-88
2022/09/01 07:28:51;;;;;;;8.27;2.47;;;18.40;97.90;;;;;;6263703;23;20008;-88
2022/09/01 07:31:30;;;;;;;3.83;2.25;;;18.40;95.10;;;;;;6259774;23;20005;-90
2022/09/01 07:34:00;;;;;;;2.08;1.88;;;18.50;95.00;;;;;;6259395;23;20059;-89
2022/09/01 07:36:27;;;;;;;3.35;2.55;;;18.50;94.90;;;;;;6258818;23;20011;-89
2022/09/01 07:38:53;;;;;;;4.13;2.72;;;18.50;94.90;;;;;;6258956;23;20012;-90
2022/09/01 07:41:21;;;;;;;6.05;2.20;;;18.60;94.60;;;;;;6234537;23;20004;-88
2022/09/01 07:43:50;;;;;;;5.18;2.65;;;18.60;94.80;;;;;;6269495;23;20004;-89
2022/09/01 07:46:34;;;;;;;3.08;2.38;;;18.60;95.10;;;;;;6259224;23;20058;-88
2022/09/01 07:49:00;;;;;;;4.53;2.50;;;18.60;94.90;;;;;;6259768;23;20374;-89
2022/09/01 07:51:28;;;;;;;6.43;3.05;;;18.70;94.80;;;;;;6259839;23;20011;-88
2022/09/01 07:53:55;;;;;;;3.05;2.83;;;18.70;94.80;;;;;;6259068;23;20004;-89
2022/09/01 07:56:23;;;;;;;9.10;3.47;;;18.70;94.80;;;;;;6235673;23;20030;-89
2022/09/01 07:58:51;;;;;;;4.15;2.70;;;18.70;94.90;;;;;;6234066;23;20008;-90
2022/09/01 08:01:20;;;;;;;3.05;2.40;;;18.80;94.90;;;;;;6259278;23;20003;-88
2022/09/01 08:03:52;;;;;;;5.88;3.17;;;18.80;95.10;;;;;;6233820;23;19996;-89
2022/09/01 08:06:21;;;;;;;3.25;2.95;;;18.80;95.00;;;;;;6233869;23;20000;-89
2022/09/01 08:08:49;;;;;;;5.55;2.55;;;18.80;95.10;;;;;;6271167;22;20038;-88
2022/09/01 08:11:23;;;;;;;3.17;2.28;;;18.90;95.10;;;;;;6233824;23;20004;-88
2022/09/01 08:13:49;;;;;;;5.60;1.90;;;18.90;95.10;;;;;;6259177;23;20032;-88
2022/09/01 08:16:15;;;;;;;4.55;2.80;;;18.90;95.20;;;;;;6236750;23;20068;-88
2022/09/01 08:18:43;;;;;;;3.85;3.28;;;19.00;95.40;;;;;;6264580;23;20062;-88
2022/09/01 08:21:14;;;;;;;2.80;2.05;;;19.00;95.20;;;;;;6238074;23;20047;-88
2022/09/01 08:24:06;;;;;;;3.70;1.60;;;19.00;95.50;;;;;;6253747;23;20008;-88
2022/09/01 08:26:35;;;;;;;3.88;1.95;;;19.10;95.50;;;;;;6258700;23;20064;-89
2022/09/01 08:29:01;;;;;;;3.17;2.30;;;19.10;95.40;;;;;;6234145;23;20016;-89
2022/09/01 08:31:37;;;;;;;3.95;1.70;;;19.20;95.60;;;;;;6258902;23;20083;-90
2022/09/01 08:34:04;;;;;;;4.38;1.58;;;19.20;95.50;;;;;;6258710;23;20008;-89
2022/09/01 08:36:30;;;;;;;2.90;2.28;;;19.30;95.50;;;;;;6233083;23;20010;-89
2022/09/01 08:38:56;;;;;;;9.00;1.80;;;19.30;95.40;;;;;;6233487;23;20008;-89
2022/09/01 08:41:41;;;;;;;4.20;1.98;;;19.40;95.40;;;;;;6258721;23;20007;-89
2022/09/01 08:44:20;;;;;;;2.05;1.90;;;19.40;95.30;;;;;;6270623;23;20007;-90
2022/09/01 08:46:47;;;;;;;2.45;1.90;;;19.50;95.30;;;;;;6259160;23;20004;-90
2022/09/01 08:49:20;;;;;;;1.83;1.25;;;19.60;95.30;;;;;;6259190;23;20008;-89
2022/09/01 08:52:27;;;;;;;;;;;19.70;95.30;;;;;;6271562;22;20016;-89
2022/09/01 08:55:08;;;;;;;3.00;2.67;;;19.70;95.30;;;;;;6234193;23;19903;-88
2022/09/01 08:57:40;;;;;;;2.10;1.90;;;19.70;95.40;;;;;;6233880;23;20031;-89
2022/09/01 09:00:23;;;;;;;2.15;1.10;;;19.80;95.30;;;;;;6271123;22;20050;-89
2022/09/01 09:02:58;;;;;;;2.95;1.92;;;19.90;95.30;;;;;;6259069;23;20046;-90
2022/09/01 09:05:29;;;;;;;2.70;1.67;;;20.00;95.20;;;;;;6269200;23;20011;-89
2022/09/01 09:08:21;;;;;;;6.18;1.90;;;20.00;95.20;;;;;;6271258;22;20000;-88
2022/09/01 09:10:54;;;;;;;1.80;1.33;;;20.00;95.20;;;;;;6269318;23;20000;-89
2022/09/01 09:13:38;;;;;;;3.17;2.42;;;20.10;95.20;;;;;;6233631;23;20007;-88
2022/09/01 09:16:17;;;;;;;2.38;1.50;;;20.10;95.20;;;;;;6270840;23;20027;-89
2022/09/01 09:19:18;;;;;;;1.30;1.20;;;20.20;95.10;;;;;;6271008;23;20008;-89
2022/09/01 09:21:46;;;;;;;5.43;2.25;;;20.20;95.10;;;;;;6189118;23;20379;-89
2022/09/01 09:24:48;;;;;;;4.43;1.65;;;20.20;97.00;;;;;;6272638;22;20000;-91
2022/09/01 09:27:22;;;;;;;2.05;1.80;;;20.40;95.00;;;;;;6235562;23;20008;-89
2022/09/01 09:29:53;;;;;;;6.53;3.15;;;20.50;94.90;;;;;;6260521;23;20031;-89
2022/09/01 09:32:22;;;;;;;2.53;1.75;;;20.50;94.80;;;;;;6260897;23;20012;-90
2022/09/01 09:34:49;;;;;;;7.72;2.75;;;20.50;97.10;;;;;;6235523;23;20010;-90
2022/09/01 09:37:29;;;;;;;3.42;2.22;;;20.60;94.60;;;;;;6234963;23;20022;-89
2022/09/01 09:40:20;;;;;;;2.40;1.10;;;20.70;94.60;;;;;;6271099;23;20015;-90
2022/09/01 09:42:54;;;;;;;6.60;2.55;;;20.70;94.50;;;;;;6272483;23;20015;-89
2022/09/01 09:45:28;;;;;;;3.80;1.70;;;20.80;94.40;;;;;;6260600;23;20087;-89
2022/09/01 09:47:56;;;;;;;7.05;1.40;;;20.90;94.30;;;;;;6274624;23;20084;-87
2022/09/01 09:50:28;;;;;;;3.25;1.77;;;20.90;94.20;;;;;;6274384;23;20004;-89
2022/09/01 09:53:15;;;;;;;4.07;1.52;;;21.00;94.10;;;;;;6284316;23;20022;-88
2022/09/01 09:56:01;;;;;;;2.50;0.88;;;21.20;96.60;;;;;;6259224;23;20008;-88
2022/09/01 09:58:35;;;;;;;2.75;1.50;;;21.20;94.00;;;;;;6249638;23;20015;-89
2022/09/01 10:01:28;;;;;;;1.90;1.17;;;21.40;96.30;;;;;;6276084;23;20040;-88
2022/09/01 10:03:56;;;;;;;1.02;0.95;;;21.30;93.70;;;;;;6285988;22;20027;-88
2022/09/01 10:22:37;;;;;;;3.83;1.20;;;22.00;91.90;;;;;;6247051;22;20039;-87
2022/09/01 10:25:13;;;;;;;2.53;1.08;;;22.10;91.90;;;;;;6249490;23;19998;-89
2022/09/01 10:27:45;;;;;;;2.60;1.15;;;22.00;91.70;;;;;;6275086;22;19985;-88
2022/09/01 10:30:19;;;;;;;1.27;1.17;;;22.20;91.50;;;;;;6285875;22;20008;-89
2022/09/01 10:32:57;;;;;;;2.08;1.05;;;22.30;91.10;;;;;;6275400;23;19984;-87
2022/09/01 10:35:23;;;;;;;2.67;0.90;;;;;;;;;;6274266;23;20095;-89
2022/09/01 10:40:46;;;;;;;0.80;0.80;;;22.50;90.50;;;;;;6237346;22;20053;-88
2022/09/01 10:43:37;;;;;;;2.70;1.13;;;22.60;90.50;;;;;;6285664;23;19988;-89
2022/09/01 10:46:25;;;;;;;0.80;0.57;;;22.60;90.30;;;;;;6248666;23;20069;-88
2022/09/01 10:48:58;;;;;;;1.75;0.82;;;22.80;90.10;;;;;;6284328;23;19984;-88
2022/09/01 10:51:30;;;;;;;3.28;1.42;;;22.70;90.10;;;;;;6259039;23;20055;-87
2022/09/01 10:53:57;;;;;;;1.17;1.00;;;22.60;90.00;;;;;;6284390;23;19984;-88
2022/09/01 10:56:23;;;;;;;3.65;1.35;;;;;;;;;;6274930;22;19996;-88
2022/09/01 10:59:17;;;;;;;0.77;0.60;;;22.70;89.50;;;;;;6286031;23;20007;-88
2022/09/01 11:01:43;;;;;;;6.53;1.00;;;;;;;;;;6248498;23;20031;-90
2022/09/01 11:04:17;;;;;;;2.90;1.30;;;22.80;89.00;;;;;;6285298;22;20007;-87
2022/09/01 11:07:10;;;;;;;1.60;1.00;;;22.70;88.80;;;;;;6284229;22;20003;-87
2022/09/01 11:09:47;;;;;;;1.63;1.52;;;22.80;88.50;;;;;;6248374;23;20141;-88
2022/09/01 11:12:14;;;;;;;2.78;1.40;;;;;;;;;;6273707;22;20411;-87
2022/09/01 11:14:54;;;;;;;3.65;0.93;;;23.10;88.10;;;;;;6283577;22;20022;-89
2022/09/01 11:17:35;;;;;;;2.55;1.35;;;23.20;87.70;;;;;;6248610;23;20064;-88
2022/09/01 11:20:21;;;;;;;1.65;1.02;;;23.30;87.40;;;;;;6284699;23;20004;-89
2022/09/01 11:23:11;;;;;;;1.90;1.00;;;23.40;87.30;;;;;;6282546;23;19987;-89
2022/09/01 11:25:47;;;;;;;;;;;23.30;88.30;;;;;;6284574;23;19980;-88
2022/09/01 11:28:22;;;;;;;6.45;0.77;;;23.50;86.50;;;;;;6263200;22;19915;-87
2022/09/01 11:31:10;;;;;;;3.47;1.10;;;23.60;86.20;;;;;;6248501;23;20070;-88
2022/09/01 11:33:46;;;;;;;6.55;1.10;;;23.70;85.90;;;;;;6247210;23;19996;-88
2022/09/01 11:36:33;;;;;;;5.60;2.28;;;23.80;85.40;;;;;;6266009;23;20016;-88
2022/09/01 11:39:34;;;;;;;1.88;0.70;;;23.80;85.10;;;;;;6250782;23;20004;-89
2022/09/01 11:42:00;;;;;;;8.80;1.95;;;;;;;;;;6240100;23;20004;-88
2022/09/01 11:44:27;;;;;;;15.35;2.00;;;;;;;;;;6250226;23;20056;-89
2022/09/01 11:47:06;;;;;;;9.98;2.30;;;24.00;84.30;;;;;;6247840;23;20024;-88
2022/09/01 11:50:16;;;;;;;7.18;2.38;;;24.10;84.10;;;;;;6237741;23;20011;-88
2022/09/01 11:52:50;;;;;;;12.10;1.17;;;24.10;83.90;;;;;;6250591;23;20072;-89
2022/09/01 11:55:30;;;;;;;9.88;2.03;;;24.20;83.60;;;;;;6214827;23;20103;-87
2022/09/01 11:57:56;;;;;;;9.73;1.45;;;;;;;;;;6215453;23;20024;-88
2022/09/01 12:00:39;;;;;;;8.00;1.58;;;24.30;83.00;;;;;;6216795;23;20005;-89
2022/09/01 12:03:21;;;;;;;10.90;2.25;;;24.30;82.70;;;;;;6253359;23;20012;-88
2022/09/01 12:05:59;;;;;;;4.05;1.55;;;24.40;82.40;;;;;;6242568;23;20004;-88
2022/09/01 12:08:29;;;;;;;12.90;1.60;;;24.50;82.10;;;;;;6216829;23;20000;-89
2022/09/01 12:11:02;;;;;;;;;;;25.20;84.40;;;;;;6243445;23;20008;-88
2022/09/01 12:13:29;;;;;;;4.13;1.00;;;;;;;;;;6238951;23;19904;-88
2022/09/01 12:16:02;;;;;;;3.67;1.23;;;24.60;81.40;;;;;;6241112;23;20023;-89
2022/09/01 12:18:34;;;;;;;1.65;1.05;;;24.60;81.10;;;;;;6217378;23;19999;-88
2022/09/01 12:21:08;;;;;;;4.22;0.98;;;24.50;80.90;;;;;;6251227;23;20001;-88
2022/09/01 12:23:37;;;;;;;3.80;1.70;;;24.60;80.70;;;;;;6249681;23;20004;-88
2022/09/01 12:26:11;;;;;;;5.85;1.85;;;24.70;79.90;;;;;;6239835;23;19997;-88
2022/09/01 12:28:40;;;;;;;6.72;1.65;;;24.70;80.30;;;;;;6252776;23;20009;-89
2022/09/01 12:31:26;;;;;;;2.97;1.45;;;22.90;81.90;;;;;;6251463;23;20005;-89
2022/09/01 12:33:56;;;;;;;4.45;0.90;;;24.90;80.20;;;;;;6250098;23;20412;-89
2022/09/01 12:36:40;;;;;;;3.28;1.00;;;22.40;79.20;;;;;;6215041;23;19995;-89
2022/09/01 12:39:22;;;;;;;2.15;1.05;;;25.80;86.00;;;;;;6213199;23;20072;-90
2022/09/01 12:42:02;;;;;;;6.18;1.60;;;25.10;79.40;;;;;;6239896;23;20091;-89
2022/09/01 12:44:28;;;;;;;3.03;1.10;;;;;;;;;;6250751;23;19995;-89
2022/09/01 12:46:59;;;;;;;2.88;1.75;;;25.10;78.60;;;;;;6251177;23;19988;-90
2022/09/01 12:49:45;;;;;;;2.92;1.55;;;25.20;78.40;;;;;;6239210;23;20012;-90
2022/09/01 12:52:24;;;;;;;4.18;1.92;;;25.20;78.20;;;;;;6252637;23;19985;-87
2022/09/01 12:55:03;;;;;;;7.20;1.70;;;25.30;78.10;;;;;;6254189;23;19993;-89
2022/09/01 12:57:35;;;;;;;3.13;1.17;;;25.30;77.70;;;;;;6242968;23;19989;-89
2022/09/01 13:05:32;;;;;;;2.13;1.67;;;25.30;77.50;;;;;;6270614;22;20036;-87
2022/09/01 13:08:01;;;;;;;7.43;2.30;;;25.30;77.00;;;;;;6247214;23;20003;-89
2022/09/01 13:10:38;;;;;;;1.98;1.60;;;25.40;77.10;;;;;;6248547;23;19991;-88
2022/09/01 13:13:05;;;;;;;2.28;1.10;;;25.40;76.80;;;;;;6283680;22;20002;-89
2022/09/01 13:15:32;;;;;;;1.13;1.08;;;25.40;76.70;;;;;;6272915;23;20039;-89
2022/09/01 13:17:58;;;;;;;5.38;1.40;;;;;;;;;;6246702;23;20012;-89
2022/09/01 13:20:25;;;;;;;2.20;0.95;;;;;;;;;;6246068;23;19996;-88
2022/09/01 13:22:54;;;;;;;5.13;1.55;;;;;;;;;;6247557;23;19997;-89
2022/09/01 13:28:10;;;;;;;5.40;1.63;;;;;;;;;;6231948;23;20028;-88
2022/09/01 13:30:38;;;;;;;;;;;25.40;76.10;;;;;;6181013;23;20028;-89
2022/09/01 13:33:04;;;;;;;2.42;0.85;;;;;;;;;;6205851;23;19915;-88
2022/09/01 13:35:31;;;;;;;1.63;1.40;;;;;;;;;;6216684;23;20000;-88
2022/09/01 13:37:57;;;;;;;3.67;1.35;;;;;;;;;;6214659;23;20009;-89
2022/09/01 13:40:24;;;;;;;1.00;0.93;;;25.20;76.10;;;;;;6241907;23;20004;-88
2022/09/01 13:42:54;;;;;;;2.47;1.23;;;25.10;75.90;;;;;;6220865;23;20048;-88
2022/09/01 13:45:27;;;;;;;1.92;0.90;;;25.00;76.20;;;;;;6188586;23;19987;-89
2022/09/01 13:47:53;;;;;;;0.88;0.88;;;;;;;;;;6217773;23;20004;-88
2022/09/01 13:50:22;;;;;;;6.28;1.25;;;24.90;76.30;;;;;;6252257;23;19985;-88
2022/09/01 13:52:50;;;;;;;2.90;1.17;;;24.90;76.40;;;;;;6223034;23;20004;-88
2022/09/01 13:55:26;;;;;;;2.85;1.25;;;24.80;76.20;;;;;;6214019;23;20015;-89
2022/09/01 13:57:52;;;;;;;7.10;1.15;;;;;;;;;;6215132;23;20000;-88
2022/09/01 14:00:23;;;;;;;1.15;0.98;;;24.80;76.10;;;;;;6189135;23;20034;-88
2022/09/01 14:02:51;;;;;;;1.10;0.85;;;24.80;76.00;;;;;;6225285;23;20060;-87
2022/09/01 14:05:32;;;;;;;1.42;1.20;;;24.80;76.20;;;;;;6252112;23;20059;-88
2022/09/01 14:10:42;;;;;;;2.55;0.65;;;24.90;76.90;;;;;;5040827;27;20354;-87
2022/09/01 14:13:08;;;;;;;4.18;1.08;;;25.00;73.70;;;;;;5023501;28;20021;-87
2022/09/01 14:15:35;;;;;;;0.82;0.82;;;25.20;73.90;;;;;;5040148;28;20030;-87
2022/09/01 14:18:01;;;;;;;6.05;0.95;;;25.40;73.80;;;;;;5006090;28;20506;-89
2022/09/01 14:20:34;;;;;;;7.05;1.25;;;25.40;73.50;;;;;;5022267;28;20040;-88
2022/09/01 14:23:03;;;;;;;0.77;0.70;;;25.50;74.10;;;;;;5023777;28;20025;-88
2022/09/01 14:25:32;;;;;;;6.38;1.23;;;25.80;80.20;;;;;;5025877;28;20032;-88
2022/09/01 14:27:59;;;;;;;7.70;1.25;;;25.60;74.70;;;;;;5043531;28;20033;-87
2022/09/01 14:30:28;;;;;;;0.47;0.47;;;25.60;73.70;;;;;;5024987;28;20059;-88
2022/09/01 14:32:54;;;;;;;1.38;1.17;;;25.80;73.90;;;;;;5026397;28;20022;-86
2022/09/01 14:35:23;;;;;;;3.67;1.25;;;26.30;73.30;;;;;;5043034;28;20030;-87
2022/09/01 14:37:50;;;;;;;12.32;1.63;;;27.00;69.80;;;;;;5036692;28;20059;-86
2022/09/01 14:40:18;;;;;;;2.25;0.70;;;27.10;67.80;;;;;;5027235;28;20025;-88
2022/09/01 14:42:47;;;;;;;1.80;1.02;;;26.70;68.90;;;;;;5029801;28;20034;-88
2022/09/01 14:45:23;;;;;;;2.03;1.20;;;26.40;68.00;;;;;;5020947;28;20049;-89
2022/09/01 14:47:52;;;;;;;3.17;0.98;;;27.20;68.30;;;;;;5035496;28;20535;-86
2022/09/01 14:50:19;;;;;;;2.15;1.23;;;28.00;67.70;;;;;;5039593;28;20113;-88
2022/09/01 14:52:46;;;;;;;1.65;0.82;;;27.70;67.50;;;;;;5039210;28;20030;-87
2022/09/01 14:55:12;;;;;;;2.92;0.85;;;27.40;68.30;;;;;;5037172;28;20050;-87
2022/09/01 14:57:38;;;;;;;3.05;1.60;;;27.70;67.30;;;;;;5021627;28;20022;-87
2022/09/01 15:00:09;;;;;;;2.80;1.00;;;27.80;67.40;;;;;;5021570;28;20102;-87
2022/09/01 15:02:35;;;;;;;5.10;1.05;;;28.00;67.30;;;;;;5037931;28;20034;-87
2022/09/01 15:05:01;;;;;;;0.80;0.77;;;28.40;66.80;;;;;;5039191;28;20041;-87
2022/09/01 15:07:27;;;;;;;1.02;0.73;;;28.90;66.20;;;;;;5021624;28;20033;-87
2022/09/01 15:09:52;;;;;;;1.15;1.00;;;29.40;65.40;;;;;;5038079;28;20038;-86
2022/09/01 15:12:18;;;;;;;34.05;3.35;;;29.90;64.00;;;;;;5040574;28;20160;-87
2022/09/01 15:14:44;;;;;;;19.15;2.28;;;28.10;70.30;;;;;;5039711;28;20060;-87
2022/09/01 15:17:10;;;;;;;20.25;2.10;;;27.90;66.20;;;;;;5037927;28;20028;-87
2022/09/01 15:19:36;;;;;;;10.00;1.40;;;27.30;67.40;;;;;;5039126;28;20032;-87
2022/09/01 15:22:03;;;;;;;2.10;1.02;;;26.60;68.70;;;;;;5023767;28;20075;-87
2022/09/01 15:24:29;;;;;;;5.85;1.30;;;26.10;69.30;;;;;;5025639;28;20040;-87
2022/09/01 15:26:55;;;;;;;0.73;0.73;;;25.80;70.20;;;;;;5014005;28;20030;-87
2022/09/01 15:29:20;;;;;;;2.80;0.88;;;26.10;70.10;;;;;;5019691;28;20044;-88
2022/09/01 15:31:46;;;;;;;3.75;1.25;;;27.40;68.10;;;;;;5024872;28;20030;-87
2022/09/01 15:34:12;;;;;;;3.50;1.08;;;27.50;67.40;;;;;;5024405;28;20082;-87
2022/09/01 15:36:40;;;;;;;4.25;1.13;;;26.80;68.20;;;;;;5025029;28;20034;-87
2022/09/01 15:39:07;;;;;;;1.60;0.98;;;26.40;69.00;;;;;;5024408;28;20037;-87
2022/09/01 15:41:35;;;;;;;3.90;0.55;;;26.50;68.90;;;;;;5021776;28;20026;-86
2022/09/01 15:44:06;;;;;;;0.70;0.52;;;26.30;69.20;;;;;;5005489;28;20030;-86
2022/09/01 15:46:33;;;;;;;1.15;0.73;;;26.50;68.50;;;;;;5009119;28;20082;-87
2022/09/01 15:49:04;;;;;;;3.15;1.33;;;26.50;68.40;;;;;;5025580;28;20098;-85
2022/09/01 15:51:38;;;;;;;3.50;0.75;;;26.10;69.20;;;;;;4995043;28;20033;-86
2022/09/01 15:54:19;;;;;;;3.47;0.93;;;25.40;74.80;;;;;;5005922;28;20037;-85
2022/09/01 15:56:46;;;;;;;1.15;1.05;;;25.50;70.80;;;;;;5012926;28;20029;-86
2022/09/01 15:59:12;;;;;;;2.47;1.10;;;25.70;69.80;;;;;;5029617;28;20105;-85
2022/09/01 16:01:44;;;;;;;0.85;0.68;;;25.40;70.90;;;;;;5028143;28;20062;-85
2022/09/01 16:04:14;;;;;;;1.48;0.80;;;25.10;71.20;;;;;;5044585;28;20025;-85
2022/09/01 16:06:41;;;;;;;1.25;1.15;;;25.00;71.70;;;;;;5042966;28;20026;-85
2022/09/01 16:09:07;;;;;;;1.60;1.35;;;24.90;72.10;;;;;;5046160;28;20068;-86
2022/09/01 16:11:35;;;;;;;0.60;0.60;;;24.80;72.20;;;;;;5081074;28;20028;-86
2022/09/01 16:14:02;;;;;;;2.13;1.00;;;24.80;77.00;;;;;;5128764;28;20032;-85
2022/09/01 16:16:37;;;;;;;0.65;0.65;;;24.60;72.50;;;;;;5101711;28;20033;-85
2022/09/01 16:19:30;;;;;;;0.82;0.82;;;24.60;72.60;;;;;;5004989;28;20037;-85
2022/09/01 16:22:17;;;;;;;0.77;0.70;;;24.60;72.70;;;;;;5005243;28;20406;-85
2022/09/01 16:24:45;;;;;;;3.03;0.82;;;24.50;72.20;;;;;;5004921;28;20030;-85
2022/09/01 16:27:18;;;;;;;6.35;1.23;;;24.50;72.40;;;;;;4996891;28;20022;-85
2022/09/01 16:29:54;;;;;;;3.45;1.02;;;24.50;72.60;;;;;;5016504;28;20035;-85
2022/09/01 16:32:22;;;;;;;7.22;1.38;;;24.40;72.60;;;;;;5004147;28;20041;-86
2022/09/01 16:34:49;;;;;;;1.73;1.50;;;24.40;72.80;;;;;;5021450;28;20018;-85
2022/09/01 16:37:38;;;;;;;1.35;1.08;;;24.40;72.80;;;;;;5024382;28;20034;-84
2022/09/01 16:40:59;;;;;;;1.33;0.80;;;24.30;72.90;;;;;;5111404;28;20396;-85
2022/09/01 16:43:34;;;;;;;1.02;0.93;;;24.30;72.40;;;;;;5066770;28;20036;-85
2022/09/01 16:46:06;;;;;;;1.48;1.35;;;24.30;72.60;;;;;;5110296;28;20062;-85
2022/09/01 16:48:47;;;;;;;4.95;1.60;;;24.20;72.20;;;;;;5126724;28;20038;-85
2022/09/01 16:51:17;;;;;;;1.20;1.10;;;24.20;72.60;;;;;;5111525;28;20510;-85
2022/09/01 16:54:14;;;;;;;0.98;0.82;;;24.10;72.50;;;;;;5128070;28;20027;-85
2022/09/01 16:57:17;;;;;;;1.45;1.15;;;24.10;72.80;;;;;;5005150;28;20030;-85
2022/09/01 16:59:59;;;;;;;0.93;0.93;;;24.10;72.70;;;;;;4988303;28;20042;-84
2022/09/01 17:02:38;;;;;;;3.40;1.02;;;24.10;72.60;;;;;;4988894;28;20041;-84
2022/09/01 17:05:24;;;;;;;0.90;0.90;;;24.00;73.40;;;;;;5020339;28;20057;-85
2022/09/01 17:08:06;;;;;;;1.35;0.90;;;24.00;72.70;;;;;;5005315;28;20022;-84
2022/09/01 17:10:57;;;;;;;0.63;0.50;;;23.90;72.90;;;;;;5016400;28;20103;-83
2022/09/01 17:13:54;;;;;;;1.42;1.15;;;23.90;72.80;;;;;;5024469;28;20026;-83
2022/09/01 17:16:28;;;;;;;2.33;1.33;;;23.90;72.90;;;;;;5007435;28;20031;-84
2022/09/01 17:18:59;;;;;;;2.72;1.40;;;23.90;73.00;;;;;;5023660;28;20030;-84
2022/09/01 17:21:44;;;;;;;1.60;1.48;;;23.80;73.20;;;;;;5006479;28;20394;-85
2022/09/01 17:24:33;;;;;;;1.17;0.90;;;23.80;73.10;;;;;;5006301;28;20053;-85
2022/09/01 17:27:06;;;;;;;1.02;1.00;;;23.80;73.20;;;;;;5022521;28;20041;-85
2022/09/01 17:29:45;;;;;;;1.40;1.08;;;23.80;73.30;;;;;;5022419;28;20058;-85
2022/09/01 17:32:17;;;;;;;2.22;1.15;;;23.80;73.50;;;;;;5005901;28;20029;-85
2022/09/01 17:35:13;;;;;;;1.27;1.17;;;23.70;73.50;;;;;;5022291;28;20032;-85
2022/09/01 17:38:17;;;;;;;1.23;0.90;;;23.70;73.60;;;;;;5023297;28;20482;-85
2022/09/01 17:41:03;;;;;;;3.05;1.30;;;23.70;73.90;;;;;;5022446;28;20042;-85
2022/09/01 17:43:54;;;;;;;3.58;1.73;;;23.60;78.40;;;;;;5022047;28;20029;-85
2022/09/01 17:46:29;;;;;;;1.42;1.33;;;23.60;74.20;;;;;;5023640;28;20098;-85
2022/09/01 17:49:07;;;;;;;1.80;1.10;;;23.60;74.40;;;;;;5022113;28;20068;-85
2022/09/01 17:52:11;;;;;;;1.10;1.10;;;23.60;74.60;;;;;;5023384;28;20026;-85
2022/09/01 17:55:18;;;;;;;1.77;1.48;;;23.60;74.70;;;;;;5022173;28;20030;-85
2022/09/01 17:57:52;;;;;;;1.58;1.20;;;23.60;75.00;;;;;;5026637;28;20057;-85
2022/09/01 18:00:23;;;;;;;1.70;1.38;;;23.50;75.60;;;;;;5022067;28;20034;-85
2022/09/01 18:03:08;;;;;;;4.47;1.17;;;23.50;75.30;;;;;;5022165;28;20038;-84
2022/09/01 18:05:39;;;;;;;1.02;0.90;;;23.50;75.50;;;;;;5023287;28;20044;-85
2022/09/01 18:08:43;;;;;;;1.80;1.38;;;23.40;75.80;;;;;;5012808;28;20112;-85
2022/09/01 18:11:23;;;;;;;4.93;1.55;;;23.40;76.20;;;;;;5023270;28;20064;-85
2022/09/01 18:14:12;;;;;;;3.33;1.67;;;23.40;76.50;;;;;;5003168;28;20031;-84
2022/09/01 18:17:02;;;;;;;7.32;2.25;;;23.40;76.90;;;;;;5002591;28;20056;-86
2022/09/01 18:19:36;;;;;;;5.13;2.42;;;23.30;77.20;;;;;;5001835;28;20058;-85
2022/09/01 18:22:07;;;;;;;5.78;2.38;;;23.30;77.80;;;;;;4986902;28;20037;-85
2022/09/01 18:25:01;;;;;;;4.38;2.38;;;23.30;78.20;;;;;;5005491;28;20034;-85
2022/09/01 18:27:27;;;;;;;6.63;3.30;;;23.20;78.50;;;;;;5022698;28;20466;-85
2022/09/01 18:29:52;;;;;;;8.02;3.80;;;23.20;79.10;;;;;;5004987;28;20089;-86
2022/09/01 18:32:24;;;;;;;3.88;3.17;;;23.10;80.00;;;;;;5022712;28;20121;-86
2022/09/01 18:34:56;;;;;;;8.88;4.00;;;23.10;80.60;;;;;;5021616;28;20034;-85
2022/09/01 18:37:42;;;;;;;13.98;5.38;;;23.00;81.60;;;;;;5021356;28;20030;-85
2022/09/01 18:40:08;;;;;;;9.35;4.78;;;23.00;83.30;;;;;;5017853;28;20031;-85
2022/09/01 18:42:43;;;;;;;16.65;5.20;;;22.90;85.50;;;;;;5001732;28;20037;-86
2022/09/01 18:45:21;;;;;;;8.80;4.90;;;22.90;86.40;;;;;;5054146;28;20133;-85
2022/09/01 18:47:55;;;;;;;7.35;4.50;;;22.80;86.80;;;;;;5021671;28;20040;-85
2022/09/01 18:50:49;;;;;;;14.77;4.47;;;22.80;86.70;;;;;;5021554;28;20060;-86
2022/09/01 18:53:14;;;;;;;9.45;5.38;;;22.80;85.00;;;;;;5023158;28;20022;-85
2022/09/01 18:56:07;;;;;;;3.65;3.03;;;22.80;84.40;;;;;;5022453;28;20205;-87
2022/09/01 18:59:38;;;;;;;7.38;4.20;;;22.70;88.00;;;;;;5025851;28;20049;-87
2022/09/01 19:02:49;;;;;;;11.05;4.43;;;22.80;83.80;;;;;;5005583;28;20038;-84
2022/09/01 19:05:40;;;;;;;10.48;5.07;;;22.70;83.60;;;;;;4989592;28;20042;-83
2022/09/01 19:08:08;;;;;;;6.57;4.35;;;22.70;83.80;;;;;;5005034;28;20045;-84
2022/09/01 19:10:50;;;;;;;9.98;5.78;;;22.70;83.70;;;;;;5005132;28;20069;-84
2022/09/01 19:13:52;;;;;;;10.27;4.43;;;22.70;83.50;;;;;;5006208;28;20054;-84
2022/09/01 19:16:36;;;;;;;9.90;4.47;;;22.60;83.30;;;;;;5005275;28;20509;-84
2022/09/01 19:19:20;;;;;;;9.52;4.97;;;22.60;83.50;;;;;;5004923;28;20038;-84
2022/09/01 19:21:50;;;;;;;12.60;5.85;;;22.60;83.40;;;;;;5009790;28;20030;-83
2022/09/01 19:24:34;;;;;;;22.27;6.75;;;22.50;83.30;;;;;;5015619;28;20030;-83
2022/09/01 19:27:11;;;;;;;12.77;5.18;;;22.50;83.10;;;;;;5015212;28;20030;-84
2022/09/01 19:29:48;;;;;;;16.80;7.00;;;22.50;83.20;;;;;;5004506;28;20038;-84
2022/09/01 19:32:17;;;;;;;17.30;6.40;;;22.50;83.10;;;;;;5017990;28;20089;-84
2022/09/01 19:35:11;;;;;;;25.02;6.70;;;22.40;83.10;;;;;;5023685;28;20040;-83
2022/09/01 19:37:38;;;;;;;24.73;7.82;;;22.40;83.10;;;;;;5018991;28;20026;-83